createdAt,value
2023-04-27T00:00:42.966Z,99553.28
2023-04-27T00:03:09.831Z,99548.97
2023-04-27T00:05:39.389Z,99555.72
2023-04-27T00:08:07.152Z,99549.25
2023-04-27T00:10:34.414Z,99560.84
2023-04-27T00:13:01.867Z,99552.75
2023-04-27T00:15:29.062Z,99559.75
2023-04-27T00:17:55.644Z,99558.38
2023-04-27T00:20:22.253Z,99560.81
2023-04-27T00:22:48.776Z,99552.44
2023-04-27T00:25:15.420Z,99554.84
2023-04-27T00:27:41.978Z,99544.63
2023-04-27T00:30:09.184Z,99552.19
2023-04-27T00:32:35.926Z,99553.25
2023-04-27T00:35:02.518Z,99552.69
2023-04-27T00:37:29.061Z,99551.91
2023-04-27T00:39:55.795Z,99552.16
2023-04-27T00:42:24.991Z,99551.06
2023-04-27T00:44:51.585Z,99551.06
2023-04-27T00:47:18.374Z,99549.19
2023-04-27T00:49:45.283Z,99550.50
2023-04-27T00:52:11.888Z,99543.78
2023-04-27T00:54:38.968Z,99545.94
2023-04-27T00:57:05.733Z,99547.03
2023-04-27T00:59:32.289Z,99536.53
2023-04-27T01:01:59.750Z,99543.25
2023-04-27T01:04:27.194Z,99543.81
2023-04-27T01:06:54.236Z,99545.72
2023-04-27T01:09:21.247Z,99540.84
2023-04-27T01:11:47.752Z,99540.28
2023-04-27T01:14:14.311Z,99544.06
2023-04-27T01:16:40.908Z,99541.13
2023-04-27T01:19:07.954Z,99540.81
2023-04-27T01:21:34.574Z,99539.50
2023-04-27T01:24:01.268Z,99545.72
2023-04-27T01:26:27.817Z,99539.00
2023-04-27T01:28:54.397Z,99534.16
2023-04-27T01:31:21.031Z,99542.00
2023-04-27T01:33:47.572Z,99535.00
2023-04-27T01:36:14.138Z,99540.91
2023-04-27T01:38:41.109Z,99535.28
2023-04-27T01:41:09.339Z,99541.47
2023-04-27T01:43:39.350Z,99537.69
2023-04-27T01:46:13.924Z,99540.13
2023-04-27T01:48:41.468Z,99537.69
2023-04-27T01:51:08.126Z,99532.59
2023-04-27T01:53:34.927Z,99534.47
2023-04-27T01:56:01.553Z,99525.34
2023-04-27T01:58:28.292Z,99526.47
2023-04-27T02:00:54.941Z,99536.72
2023-04-27T02:03:21.789Z,99528.88
2023-04-27T02:05:48.497Z,99536.75
2023-04-27T02:08:15.289Z,99544.25
2023-04-27T02:10:41.897Z,99541.56
2023-04-27T02:13:09.705Z,99539.97
2023-04-27T02:15:36.586Z,99545.91
2023-04-27T02:18:03.883Z,99551.06
2023-04-27T02:20:33.586Z,99542.97
2023-04-27T02:23:01.045Z,99547.31
2023-04-27T02:25:27.993Z,99541.69
2023-04-27T02:27:55.078Z,99555.13
2023-04-27T02:30:22.429Z,99547.31
2023-04-27T02:32:49.754Z,99548.97
2023-04-27T02:35:16.452Z,99551.69
2023-04-27T02:37:43.010Z,99544.94
2023-04-27T02:40:09.988Z,99553.56
2023-04-27T02:42:38.922Z,99551.69
2023-04-27T02:45:08.645Z,99557.88
2023-04-27T02:47:35.390Z,99552.53
2023-04-27T02:50:02.742Z,99547.44
2023-04-27T02:52:29.220Z,99550.97
2023-04-27T02:54:55.834Z,99550.41
2023-04-27T02:57:22.360Z,99552.59
2023-04-27T02:59:48.881Z,99556.38
2023-04-27T03:02:15.711Z,99551.81
2023-04-27T03:04:43.560Z,99549.41
2023-04-27T03:07:10.228Z,99556.13
2023-04-27T03:09:36.798Z,99556.88
2023-04-27T03:12:04.084Z,99555.81
2023-04-27T03:14:30.819Z,99556.09
2023-04-27T03:16:57.554Z,99561.22
2023-04-27T03:19:24.355Z,99559.59
2023-04-27T03:21:51.086Z,99552.59
2023-04-27T03:24:17.673Z,99548.28
2023-04-27T03:26:44.196Z,99548.00
2023-04-27T03:29:10.776Z,99553.91
2023-04-27T03:31:37.436Z,99544.00
2023-04-27T03:34:04.033Z,99556.84
2023-04-27T03:36:32.113Z,99550.41
2023-04-27T03:38:58.658Z,99555.25
2023-04-27T03:41:25.307Z,99547.72
2023-04-27T03:43:53.485Z,99559.28
2023-04-27T03:46:20.061Z,99562.22
2023-04-27T03:48:47.293Z,99562.22
2023-04-27T03:51:14.083Z,99560.09
2023-04-27T03:53:40.818Z,99562.78
2023-04-27T03:56:07.534Z,99560.38
2023-04-27T03:58:34.242Z,99555.25
2023-04-27T04:01:01.342Z,99561.22
2023-04-27T04:03:28.243Z,99552.59
2023-04-27T04:05:54.932Z,99548.81
2023-04-27T04:08:21.472Z,99563.09
2023-04-27T04:10:48.039Z,99559.88
2023-04-27T04:13:14.552Z,99558.28
2023-04-27T04:15:41.252Z,99554.75
2023-04-27T04:18:07.882Z,99557.47
2023-04-27T04:20:36.114Z,99556.91
2023-04-27T04:23:02.671Z,99562.53
2023-04-27T04:25:29.262Z,99552.59
2023-04-27T04:27:56.117Z,99555.56
2023-04-27T04:30:23.299Z,99560.13
2023-04-27T04:32:49.892Z,99561.47
2023-04-27T04:35:19.774Z,99561.19
2023-04-27T04:37:46.832Z,99563.34
2023-04-27T04:40:14.043Z,99567.66
2023-04-27T04:42:40.664Z,99576.03
2023-04-27T04:45:07.911Z,99574.13
2023-04-27T04:47:35.133Z,99575.19
2023-04-27T04:50:02.161Z,99574.38
2023-04-27T04:52:28.849Z,99578.44
2023-04-27T04:54:55.404Z,99584.00
2023-04-27T04:57:22.274Z,99582.44
2023-04-27T04:59:48.890Z,99584.06
2023-04-27T05:02:15.480Z,99583.63
2023-04-27T05:04:42.161Z,99574.31
2023-04-27T05:07:08.763Z,99579.09
2023-04-27T05:09:35.392Z,99578.91
2023-04-27T05:12:02.069Z,99580.91
2023-04-27T05:14:28.652Z,99573.00
2023-04-27T05:16:55.272Z,99582.72
2023-04-27T05:19:22.120Z,99582.06
2023-04-27T05:21:48.761Z,99579.19
2023-04-27T05:24:15.369Z,99583.03
2023-04-27T05:26:43.647Z,99584.44
2023-04-27T05:29:10.345Z,99585.63
2023-04-27T05:31:37.054Z,99587.28
2023-04-27T05:34:03.675Z,99591.66
2023-04-27T05:36:30.288Z,99591.16
2023-04-27T05:38:56.957Z,99585.75
2023-04-27T05:41:23.871Z,99582.53
2023-04-27T05:43:50.415Z,99588.75
2023-04-27T05:46:17.068Z,99587.38
2023-04-27T05:48:43.820Z,99582.81
2023-04-27T05:51:10.495Z,99588.44
2023-04-27T05:53:37.049Z,99597.03
2023-04-27T05:56:06.611Z,99595.94
2023-04-27T05:58:33.855Z,99600.16
2023-04-27T06:01:01.162Z,99614.69
2023-04-27T06:03:27.803Z,99604.97
2023-04-27T06:06:00.749Z,99610.84
2023-04-27T06:08:27.937Z,99610.81
2023-04-27T06:10:54.680Z,99613.97
2023-04-27T06:13:21.651Z,99617.97
2023-04-27T06:15:48.304Z,99612.31
2023-04-27T06:18:15.080Z,99611.72
2023-04-27T06:20:42.933Z,99612.75
2023-04-27T06:23:09.772Z,99612.44
2023-04-27T06:25:38.840Z,99613.75
2023-04-27T06:28:05.599Z,99613.69
2023-04-27T06:30:32.219Z,99614.16
2023-04-27T06:32:58.817Z,99609.53
2023-04-27T06:35:25.582Z,99606.78
2023-04-27T06:37:52.138Z,99608.66
2023-04-27T06:40:18.695Z,99603.25
2023-04-27T06:42:45.325Z,99609.50
2023-04-27T06:45:12.358Z,99612.19
2023-04-27T06:47:38.921Z,99614.06
2023-04-27T06:50:06.366Z,99611.03
2023-04-27T06:52:33.689Z,99615.06
2023-04-27T06:55:00.368Z,99612.84
2023-04-27T06:57:27.870Z,99608.41
2023-04-27T06:59:54.427Z,99612.69
2023-04-27T07:02:21.852Z,99622.56
2023-04-27T07:04:49.830Z,99621.06
2023-04-27T07:07:16.476Z,99620.41
2023-04-27T07:09:44.126Z,99625.03
2023-04-27T07:12:10.683Z,99625.03
2023-04-27T07:14:37.384Z,99623.03
2023-04-27T07:17:03.937Z,99624.03
2023-04-27T07:19:30.624Z,99617.41
2023-04-27T07:21:57.163Z,99633.53
2023-04-27T07:24:23.651Z,99613.38
2023-04-27T07:26:50.218Z,99621.38
2023-04-27T07:29:26.115Z,99622.31
2023-04-27T07:31:53.571Z,99610.78
2023-04-27T07:34:20.346Z,99616.03
2023-04-27T07:36:46.958Z,99612.09
2023-04-27T07:39:13.675Z,99606.38
2023-04-27T07:41:41.229Z,99606.59
2023-04-27T07:44:07.772Z,99615.72
2023-04-27T07:46:34.347Z,99614.13
2023-04-27T07:49:01.099Z,99601.38
2023-04-27T07:51:30.420Z,99606.28
2023-04-27T07:53:56.917Z,99602.88
2023-04-27T07:56:23.514Z,99606.69
2023-04-27T07:58:50.880Z,99601.28
2023-04-27T08:01:19.474Z,99597.25
2023-04-27T08:03:47.525Z,99603.03
2023-04-27T08:06:14.888Z,99595.41
2023-04-27T08:08:41.784Z,99599.06
2023-04-27T08:11:12.264Z,99599.50
2023-04-27T08:13:38.870Z,99606.94
2023-04-27T08:16:05.981Z,99598.56
2023-04-27T08:18:32.701Z,99600.44
2023-04-27T08:20:59.224Z,99590.41
2023-04-27T08:23:29.792Z,99597.38
2023-04-27T08:25:56.559Z,99595.59
2023-04-27T08:28:23.532Z,99594.81
2023-04-27T08:30:50.177Z,99586.75
2023-04-27T08:33:16.717Z,99582.88
2023-04-27T08:35:43.348Z,99588.19
2023-04-27T08:38:09.950Z,99580.66
2023-04-27T08:40:36.473Z,99573.75
2023-04-27T08:43:03.035Z,99576.63
2023-04-27T08:45:29.683Z,99575.84
2023-04-27T08:47:57.043Z,99574.84
2023-04-27T08:50:24.416Z,99568.81
2023-04-27T08:52:52.144Z,99574.91
2023-04-27T08:55:19.147Z,99564.22
2023-04-27T08:58:12.168Z,99571.31
2023-04-27T09:00:43.226Z,99580.34
2023-04-27T09:03:23.071Z,99573.66
2023-04-27T09:06:03.754Z,99565.91
2023-04-27T09:08:50.632Z,99565.59
2023-04-27T09:11:29.437Z,99566.13
2023-04-27T09:13:56.043Z,99558.38
2023-04-27T09:16:28.383Z,99566.28
2023-04-27T09:18:56.620Z,99555.97
2023-04-27T09:21:27.879Z,99551.38
2023-04-27T09:23:55.924Z,99559.88
2023-04-27T09:26:27.196Z,99561.66
2023-04-27T09:28:58.980Z,99564.56
2023-04-27T09:31:35.707Z,99566.50
2023-04-27T09:34:03.116Z,99568.25
2023-04-27T09:36:30.880Z,99563.91
2023-04-27T09:38:57.996Z,99579.78
2023-04-27T09:41:25.390Z,99575.00
2023-04-27T09:43:56.325Z,99566.69
2023-04-27T09:46:24.479Z,99561.19
2023-04-27T09:48:52.692Z,99556.94
2023-04-27T09:51:19.213Z,99560.06
2023-04-27T09:53:52.761Z,99552.78
2023-04-27T09:56:55.683Z,99550.88
2023-04-27T09:59:41.268Z,99546.81
2023-04-27T10:02:24.142Z,99552.13
2023-04-27T10:05:15.090Z,99549.75
2023-04-27T10:07:41.837Z,99544.00
2023-04-27T10:10:20.539Z,99550.41
2023-04-27T10:12:58.056Z,99543.06
2023-04-27T10:15:29.833Z,99539.63
2023-04-27T10:17:59.282Z,99533.28
2023-04-27T10:20:31.109Z,99530.72
2023-04-27T10:22:58.923Z,99540.97
2023-04-27T10:25:28.403Z,99535.81
2023-04-27T10:28:02.642Z,99535.09
2023-04-27T10:30:36.240Z,99522.31
2023-04-27T10:33:10.941Z,99523.56
2023-04-27T10:35:43.262Z,99524.63
2023-04-27T10:38:18.239Z,99512.31
2023-04-27T10:40:46.541Z,99512.03
2023-04-27T10:43:17.843Z,99511.50
2023-04-27T10:45:45.469Z,99507.66
2023-04-27T10:48:15.884Z,99501.97
2023-04-27T10:50:44.774Z,99504.03
2023-04-27T10:53:11.502Z,99503.34
2023-04-27T10:55:38.163Z,99497.53
2023-04-27T10:58:04.847Z,99493.56
2023-04-27T11:00:41.478Z,99477.78
2023-04-27T11:03:15.915Z,99489.84
2023-04-27T11:05:48.014Z,99488.94
2023-04-27T11:08:15.954Z,99492.94
2023-04-27T11:10:50.633Z,99489.75
2023-04-27T11:13:22.472Z,99488.16
2023-04-27T11:15:58.851Z,99488.84
2023-04-27T11:18:29.238Z,99487.84
2023-04-27T11:21:07.469Z,99481.13
2023-04-27T11:23:38.185Z,99475.66
2023-04-27T11:26:14.909Z,99469.75
2023-04-27T11:29:01.915Z,99461.44
2023-04-27T11:31:41.949Z,99455.63
2023-04-27T11:34:08.780Z,99459.25
2023-04-27T11:36:36.154Z,99459.09
2023-04-27T11:39:06.489Z,99457.22
2023-04-27T11:41:37.352Z,99449.84
2023-04-27T11:44:08.859Z,99442.31
2023-04-27T11:46:36.711Z,99435.63
2023-04-27T11:49:08.745Z,99447.16
2023-04-27T11:51:38.361Z,99434.69
2023-04-27T11:54:08.129Z,99439.91
2023-04-27T11:56:39.157Z,99431.44
2023-04-27T11:59:06.380Z,99427.91
2023-04-27T12:01:38.059Z,99427.34
2023-04-27T12:04:05.245Z,99430.22
2023-04-27T12:06:33.867Z,99443.69
2023-04-27T12:09:00.989Z,99429.06
2023-04-27T12:11:30.797Z,99432.81
2023-04-27T12:13:57.550Z,99424.00
2023-04-27T12:16:24.185Z,99414.69
2023-04-27T12:18:50.845Z,99408.78
2023-04-27T12:21:17.670Z,99411.97
2023-04-27T12:23:44.485Z,99418.00
2023-04-27T12:26:14.946Z,99416.59
2023-04-27T12:28:41.969Z,99407.31
2023-04-27T12:31:08.590Z,99412.13
2023-04-27T12:33:35.403Z,99422.88
2023-04-27T12:36:02.052Z,99418.44
2023-04-27T12:38:29.241Z,99414.91
2023-04-27T12:40:56.446Z,99409.50
2023-04-27T12:43:22.976Z,99413.25
2023-04-27T12:45:49.576Z,99416.19
2023-04-27T12:48:17.693Z,99407.91
2023-04-27T12:50:44.524Z,99415.09
2023-04-27T12:53:11.528Z,99410.19
2023-04-27T12:55:38.183Z,99409.88
2023-04-27T12:58:05.121Z,99413.97
2023-04-27T13:00:32.216Z,99413.06
2023-04-27T13:02:58.849Z,99413.41
2023-04-27T13:05:26.400Z,99413.59
2023-04-27T13:07:53.149Z,99411.72
2023-04-27T13:10:19.715Z,99412.28
2023-04-27T13:12:46.323Z,99412.25
2023-04-27T13:15:12.870Z,99400.63
2023-04-27T13:17:40.295Z,99404.88
2023-04-27T13:20:09.048Z,99408.00
2023-04-27T13:22:35.820Z,99412.16
2023-04-27T13:25:02.415Z,99400.66
2023-04-27T13:27:28.970Z,99396.72
2023-04-27T13:29:56.112Z,99394.53
2023-04-27T13:32:23.051Z,99393.53
2023-04-27T13:34:49.804Z,99400.13
2023-04-27T13:37:17.296Z,99389.09
2023-04-27T13:39:43.843Z,99383.69
2023-04-27T13:42:10.435Z,99383.78
2023-04-27T13:44:37.046Z,99378.75
2023-04-27T13:47:03.808Z,99373.81
2023-04-27T13:49:30.434Z,99376.63
2023-04-27T13:51:57.017Z,99370.19
2023-04-27T13:54:23.907Z,99356.09
2023-04-27T13:56:50.460Z,99353.97
2023-04-27T13:59:17.297Z,99344.38
2023-04-27T14:01:44.016Z,99340.00
2023-04-27T14:04:10.824Z,99329.22
2023-04-27T14:06:37.736Z,99326.25
2023-04-27T14:09:04.831Z,99329.06
2023-04-27T14:11:37.205Z,99330.66
2023-04-27T14:14:08.948Z,99330.91
2023-04-27T14:16:35.746Z,99329.91
2023-04-27T14:19:02.354Z,99316.41
2023-04-27T14:21:28.969Z,99332.44
2023-04-27T14:23:55.557Z,99331.03
2023-04-27T14:26:22.092Z,99324.19
2023-04-27T14:28:48.595Z,99320.50
2023-04-27T14:31:15.229Z,99316.16
2023-04-27T14:33:41.788Z,99308.97
2023-04-27T14:36:08.571Z,99309.31
2023-04-27T14:38:35.174Z,99301.28
2023-04-27T14:41:03.016Z,99289.53
2023-04-27T14:43:29.707Z,99295.19
2023-04-27T14:46:04.862Z,99289.66
2023-04-27T14:48:38.878Z,99295.34
2023-04-27T14:51:06.580Z,99283.84
2023-04-27T14:53:33.362Z,99288.47
2023-04-27T14:55:59.918Z,99284.34
2023-04-27T14:58:26.469Z,99285.94
2023-04-27T15:00:52.968Z,99283.03
2023-04-27T15:03:20.438Z,99287.41
2023-04-27T15:05:47.092Z,99277.44
2023-04-27T15:08:13.660Z,99278.84
2023-04-27T15:10:40.192Z,99280.41
2023-04-27T15:13:06.802Z,99287.47
2023-04-27T15:15:33.344Z,99275.81
2023-04-27T15:17:59.955Z,99275.22
2023-04-27T15:20:27.049Z,99277.00
2023-04-27T15:22:53.613Z,99273.84
2023-04-27T15:25:20.421Z,99287.47
2023-04-27T15:27:47.097Z,99287.81
2023-04-27T15:30:14.790Z,99291.47
2023-04-27T15:32:41.679Z,99298.47
2023-04-27T15:35:08.875Z,99299.78
2023-04-27T15:37:36.807Z,99297.91
2023-04-27T15:40:04.283Z,99288.81
2023-04-27T15:42:30.993Z,99287.53
2023-04-27T15:44:58.067Z,99281.16
2023-04-27T15:47:24.557Z,99282.13
2023-04-27T15:49:57.432Z,99287.06
2023-04-27T15:52:24.447Z,99284.53
2023-04-27T15:54:51.081Z,99284.41
2023-04-27T15:57:18.385Z,99280.38
2023-04-27T15:59:44.986Z,99277.25
2023-04-27T16:02:12.258Z,99271.75
2023-04-27T16:04:38.917Z,99275.09
2023-04-27T16:07:08.295Z,99271.91
2023-04-27T16:09:35.336Z,99269.16
2023-04-27T16:12:03.862Z,99264.47
2023-04-27T16:14:30.632Z,99265.41
2023-04-27T16:17:00.827Z,99258.97
2023-04-27T16:19:27.748Z,99256.72
2023-04-27T16:21:54.479Z,99253.25
2023-04-27T16:24:21.305Z,99248.16
2023-04-27T16:26:48.072Z,99250.47
2023-04-27T16:29:14.877Z,99250.47
2023-04-27T16:31:42.779Z,99249.75
2023-04-27T16:34:09.558Z,99243.97
2023-04-27T16:36:36.581Z,99245.47
2023-04-27T16:39:05.047Z,99235.50
2023-04-27T16:41:31.786Z,99233.34
2023-04-27T16:43:58.411Z,99231.53
2023-04-27T16:46:25.133Z,99225.69
2023-04-27T16:48:51.733Z,99229.72
2023-04-27T16:51:18.354Z,99231.75
2023-04-27T16:53:44.966Z,99216.56
2023-04-27T16:56:13.487Z,99219.16
2023-04-27T16:58:40.984Z,99216.47
2023-04-27T17:01:07.859Z,99206.59
2023-04-27T17:03:36.161Z,99213.53
2023-04-27T17:06:03.205Z,99216.84
2023-04-27T17:08:29.927Z,99220.13
2023-04-27T17:10:56.463Z,99221.06
2023-04-27T17:13:23.072Z,99227.56
2023-04-27T17:15:50.627Z,99216.44
2023-04-27T17:18:17.520Z,99217.16
2023-04-27T17:20:44.270Z,99212.38
2023-04-27T17:23:10.796Z,99221.19
2023-04-27T17:25:37.346Z,99221.38
2023-04-27T17:28:04.034Z,99218.84
2023-04-27T17:30:30.723Z,99216.66
2023-04-27T17:32:57.869Z,99215.69
2023-04-27T17:35:24.577Z,99216.66
2023-04-27T17:37:52.109Z,99207.06
2023-04-27T17:40:21.025Z,99216.97
2023-04-27T17:42:48.000Z,99215.38
2023-04-27T17:45:15.436Z,99211.66
2023-04-27T17:47:42.318Z,99211.50
2023-04-27T17:50:09.433Z,99219.88
2023-04-27T17:52:36.012Z,99213.69
2023-04-27T17:55:02.985Z,99215.34
2023-04-27T17:57:29.556Z,99213.81
2023-04-27T17:59:56.138Z,99210.00
2023-04-27T18:02:23.141Z,99206.50
2023-04-27T18:04:50.082Z,99205.28
2023-04-27T18:07:18.622Z,99211.16
2023-04-27T18:09:45.504Z,99209.16
2023-04-27T18:12:12.201Z,99206.44
2023-04-27T18:14:39.093Z,99222.53
2023-04-27T18:17:05.884Z,99217.53
2023-04-27T18:19:32.537Z,99219.44
2023-04-27T18:21:59.379Z,99213.63
2023-04-27T18:24:26.146Z,99215.25
2023-04-27T18:26:52.732Z,99207.50
2023-04-27T18:29:19.400Z,99201.81
2023-04-27T18:31:46.288Z,99197.22
2023-04-27T18:34:13.252Z,99191.56
2023-04-27T18:36:40.020Z,99180.88
2023-04-27T18:39:06.617Z,99171.31
2023-04-27T18:41:33.174Z,99181.28
2023-04-27T18:44:04.797Z,99179.25
2023-04-27T18:46:32.054Z,99186.53
2023-04-27T18:48:58.598Z,99184.94
2023-04-27T18:51:26.313Z,99188.00
2023-04-27T18:53:53.488Z,99183.88
2023-04-27T18:56:20.219Z,99181.03
2023-04-27T18:58:48.610Z,99181.69
2023-04-27T19:01:25.962Z,99190.06
2023-04-27T19:03:53.314Z,99188.38
2023-04-27T19:06:21.104Z,99193.69
2023-04-27T19:08:48.158Z,99200.97
2023-04-27T19:11:14.692Z,99193.47
2023-04-27T19:13:43.223Z,99184.00
2023-04-27T19:16:10.462Z,99185.47
2023-04-27T19:18:37.282Z,99192.72
2023-04-27T19:21:04.424Z,99191.81
2023-04-27T19:23:31.042Z,99200.97
2023-04-27T19:26:02.772Z,99199.41
2023-04-27T19:28:36.859Z,99197.03
2023-04-27T19:31:03.474Z,99199.28
2023-04-27T19:33:30.069Z,99192.88
2023-04-27T19:35:58.506Z,99192.88
2023-04-27T19:38:25.665Z,99192.09
2023-04-27T19:40:52.444Z,99194.38
2023-04-27T19:43:19.082Z,99202.41
2023-04-27T19:45:45.703Z,99206.56
2023-04-27T19:48:12.316Z,99206.94
2023-04-27T19:50:41.778Z,99211.91
2023-04-27T19:53:08.520Z,99203.28
2023-04-27T19:55:35.114Z,99202.16
2023-04-27T19:58:01.650Z,99200.88
2023-04-27T20:00:28.361Z,99208.59
2023-04-27T20:02:55.336Z,99206.84
2023-04-27T20:05:22.312Z,99197.44
2023-04-27T20:07:51.551Z,99188.91
2023-04-27T20:10:18.168Z,99198.44
2023-04-27T20:12:55.419Z,99187.94
2023-04-27T20:15:23.054Z,99198.06
2023-04-27T20:17:49.643Z,99177.59
2023-04-27T20:20:16.388Z,99181.44
2023-04-27T20:22:42.942Z,99176.00
2023-04-27T20:25:09.922Z,99172.47
2023-04-27T20:27:36.525Z,99173.28
2023-04-27T20:30:03.718Z,99168.03
2023-04-27T20:32:30.319Z,99177.34
2023-04-27T20:34:56.822Z,99175.59
2023-04-27T20:37:24.792Z,99165.84
2023-04-27T20:39:54.568Z,99177.03
2023-04-27T20:42:21.178Z,99164.56
2023-04-27T20:44:48.480Z,99154.69
2023-04-27T20:47:15.158Z,99157.25
2023-04-27T20:49:42.250Z,99153.25
2023-04-27T20:52:08.954Z,99154.06
2023-04-27T20:54:36.325Z,99149.28
2023-04-27T20:57:08.465Z,99151.53
2023-04-27T20:59:35.131Z,99145.94
2023-04-27T21:02:01.799Z,99154.44
2023-04-27T21:04:28.489Z,99157.81
2023-04-27T21:06:55.052Z,99157.34
2023-04-27T21:09:21.851Z,99151.91
2023-04-27T21:11:48.506Z,99151.91
2023-04-27T21:14:15.272Z,99144.88
2023-04-27T21:16:41.996Z,99141.38
2023-04-27T21:19:08.883Z,99147.13
2023-04-27T21:21:35.408Z,99142.34
2023-04-27T21:24:07.839Z,99133.06
2023-04-27T21:26:34.916Z,99139.94
2023-04-27T21:29:01.637Z,99148.44
2023-04-27T21:31:28.294Z,99138.69
2023-04-27T21:33:54.924Z,99146.84
2023-04-27T21:36:21.601Z,99146.03
2023-04-27T21:38:48.156Z,99143.66
2023-04-27T21:41:16.597Z,99145.25
2023-04-27T21:43:44.165Z,99138.22
2023-04-27T21:46:10.825Z,99135.50
2023-04-27T21:48:37.373Z,99138.06
2023-04-27T21:51:04.138Z,99137.75
2023-04-27T21:53:30.724Z,99134.53
2023-04-27T21:55:57.349Z,99132.47
2023-04-27T21:58:24.425Z,99134.44
2023-04-27T22:00:51.198Z,99120.34
2023-04-27T22:03:18.109Z,99121.47
2023-04-27T22:05:45.486Z,99126.13
2023-04-27T22:08:12.202Z,99116.34
2023-04-27T22:10:38.802Z,99121.34
2023-04-27T22:13:17.659Z,99129.03
2023-04-27T22:15:45.940Z,99119.28
2023-04-27T22:18:14.520Z,99119.94
2023-04-27T22:20:42.396Z,99114.81
2023-04-27T22:23:09.495Z,99121.72
2023-04-27T22:25:36.217Z,99120.91
2023-04-27T22:28:02.865Z,99115.47
2023-04-27T22:30:29.797Z,99119.00
2023-04-27T22:32:56.821Z,99115.47
2023-04-27T22:35:27.023Z,99112.28
2023-04-27T22:37:57.426Z,99126.19
2023-04-27T22:40:24.579Z,99124.13
2023-04-27T22:42:51.488Z,99113.44
2023-04-27T22:45:18.145Z,99111.38
2023-04-27T22:47:46.060Z,99106.13
2023-04-27T22:50:13.481Z,99118.59
2023-04-27T22:52:42.231Z,99125.00
2023-04-27T22:55:10.303Z,99137.97
2023-04-27T22:57:37.250Z,99138.97
2023-04-27T23:00:05.490Z,99140.09
2023-04-27T23:02:32.380Z,99129.81
2023-04-27T23:04:59.145Z,99126.03
2023-04-27T23:07:25.683Z,99132.06
2023-04-27T23:09:52.900Z,99135.91
2023-04-27T23:12:20.874Z,99120.91
2023-04-27T23:14:47.482Z,99119.63
2023-04-27T23:17:15.545Z,99118.84
2023-04-27T23:19:42.194Z,99114.19
2023-04-27T23:22:08.768Z,99112.59
2023-04-27T23:24:35.275Z,99112.59
2023-04-27T23:27:01.820Z,99108.75
2023-04-27T23:29:28.538Z,99109.41
2023-04-27T23:31:55.119Z,99107.03
2023-04-27T23:34:21.768Z,99110.03
2023-04-27T23:36:48.278Z,99101.44
2023-04-27T23:39:14.806Z,99086.56
2023-04-27T23:41:41.435Z,99087.88
2023-04-27T23:44:08.468Z,99083.88
2023-04-27T23:46:35.154Z,99088.69
2023-04-27T23:49:01.818Z,99080.38
2023-04-27T23:51:28.369Z,99072.53
2023-04-27T23:53:54.892Z,99075.25
2023-04-27T23:56:23.106Z,99071.75
2023-04-27T23:58:49.855Z,99073.19
